Latest Weather Observations for Casino

IDN60801

Issued at 5:35 pm EDT Sunday 23 November 2014 (issued every 30 minutes, with the page automatically refreshed every 10 minutes)

About weather observations | Map of weather stations | Latest weather observations for NSW | Other Formats
Station Details ID: 058208 Name: CASINO AIRPORT AWS Lat: -28.88 Lon: 153.06 Height: 20.9 m
Data from the previous 72 hours. | See also: Recent months at Casino
Date/Time
EDT
Temp
°C
App
Temp
°C
Dew
Point
Rel
Hum
%
Delta-T
°C
Wind Press
QNH
hPa
Press
MSL
hPa
Rain
since 9 am
mm
Dir
 
Spd
km/h
Gust
km/h
Spd
kts
Gust
kts
23/05:30pm 31.5 35.4 21.9 56 6.5 E 4 6 2 3 1010.9 1010.9 0.0
23/05:00pm 31.8 34.6 21.6 54 6.9 E 9 11 5 6 1011.0 1011.0 0.0
23/04:30pm 31.8 34.5 21.3 53 7.1 E 9 13 5 7 1011.5 1011.5 0.0
23/04:00pm 32.4 34.7 21.3 52 7.5 ENE 11 15 6 8 1011.1 1011.1 0.0
23/03:30pm 33.9 34.6 18.8 41 9.9 N 13 20 7 11 1011.3 1011.3 0.0
23/03:00pm 34.5 34.3 18.5 38 10.5 NNW 17 24 9 13 1011.5 1011.5 0.0
23/02:30pm 35.2 34.5 18.3 36 11.0 NNW 19 28 10 15 1011.5 1011.5 0.0
23/02:00pm 35.8 35.0 18.4 35 11.4 NW 20 26 11 14 1012.0 1012.0 0.0
23/01:30pm 36.9 37.2 18.0 33 12.3 NNE 13 15 7 8 1012.3 1012.3 0.0
23/01:00pm 37.6 37.1 19.0 33 12.3 N 20 28 11 15 1012.7 1012.7 0.0
23/12:30pm 35.9 35.5 19.3 37 11.0 N 20 28 11 15 1013.5 1013.5 0.0
23/12:00pm 35.1 35.1 20.2 41 10.0 NNW 20 28 11 15 1014.2 1014.1 0.0
23/11:30am 34.1 33.9 20.5 45 9.1 N 22 30 12 16 1014.5 1014.4 0.0
23/11:00am 32.7 32.0 20.2 47 8.3 N 24 33 13 18 1015.1 1015.0 0.0
23/10:30am 31.8 31.6 19.8 49 7.9 NNW 20 30 11 16 1015.6 1015.5 0.0
23/10:00am 30.5 29.6 19.8 52 7.0 NNW 24 30 13 16 1015.9 1015.8 0.0
23/09:30am 29.6 28.9 19.6 55 6.5 N 22 33 12 18 1015.8 1015.7 0.0
23/09:00am 29.4 28.9 20.8 60 5.7 NNW 24 33 13 18 1015.9 1015.8 0.0
23/08:30am 28.6 28.0 20.6 62 5.3 NNW 24 32 13 17 1015.9 1015.8 0.0
23/08:00am 26.9 29.7 21.6 72 3.5 NNW 9 13 5 7 1016.0 1015.9 0.0
23/07:30am 24.5 27.5 21.2 82 2.2 N 7 11 4 6 1015.8 1015.7 0.0
23/07:00am 22.6 25.6 20.9 90 1.1 N 6 7 3 4 1015.6 1015.5 0.0
23/06:30am 21.6 25.4 20.2 92 0.9 CALM 0 0 0 0 1015.5 1015.4 0.0
23/06:00am 20.9 24.4 19.6 92 0.8 CALM 0 6 0 3 1015.0 1014.9 0.0
23/05:30am 20.7 24.1 19.4 92 0.8 CALM 0 0 0 0 1014.7 1014.6 0.0
23/05:00am 20.8 23.0 19.5 92 0.8 SW 7 9 4 5 1014.0 1013.9 0.0
23/04:30am 21.3 25.0 19.9 92 0.9 CALM 0 4 0 2 1013.5 1013.5 0.0
23/04:00am 21.4 25.1 19.9 91 1.0 CALM 0 0 0 0 1013.3 1013.3 0.0
23/03:30am 21.5 25.2 20.0 91 1.0 CALM 0 0 0 0 1013.2 1013.2 0.0
23/03:00am 21.8 25.6 20.1 90 1.1 CALM 0 0 0 0 1013.3 1013.3 0.0
23/02:30am 22.0 25.0 20.1 89 1.2 SE 4 7 2 4 1013.5 1013.5 0.0
23/02:00am 22.0 25.6 19.7 87 1.5 CALM 0 0 0 0 1014.1 1014.0 0.0
23/01:30am 22.2 24.6 19.7 86 1.6 ESE 6 7 3 4 1014.1 1014.0 0.0
23/01:00am 22.5 25.8 19.9 85 1.7 ESE 2 7 1 4 1014.2 1014.1 0.0
23/12:30am 23.1 25.8 20.2 84 1.9 SSE 6 7 3 4 1014.5 1014.4 0.0
23/12:00am 23.0 25.5 19.8 82 2.1 ESE 6 9 3 5 1014.5 1014.4 0.0
 
Date/Time
EDT
Temp
°C
App
Temp
°C
Dew
Point
Rel
Hum
%
Delta-T
°C
Wind Press
QNH
hPa
Press
MSL
hPa
Rain
since 9 am
mm
Dir
 
Spd
km/h
Gust
km/h
Spd
kts
Gust
kts
22/11:30pm 23.6 27.5 20.3 82 2.1 SSE 0 0 0 0 1014.5 1014.4 0.0
22/11:00pm 24.3 27.9 20.6 80 2.4 SSE 2 6 1 3 1014.3 1014.2 0.0
22/10:30pm 24.8 27.1 20.7 78 2.7 S 9 13 5 7 1014.2 1014.1 0.0
22/10:00pm 25.5 27.6 21.0 76 3.0 S 11 17 6 9 1013.8 1013.7 0.0
22/09:30pm 26.5 28.4 21.3 73 3.5 S 13 17 7 9 1013.2 1013.2 0.0
22/09:00pm 27.1 29.8 21.4 71 3.8 SSE 9 17 5 9 1012.5 1012.5 0.0
22/08:30pm 27.6 30.4 21.6 70 4.0 SSE 9 13 5 7 1012.0 1012.0 0.0
22/08:00pm 28.2 30.6 21.5 67 4.5 SSE 11 19 6 10 1011.5 1011.5 0.0
22/07:30pm 29.0 29.7 21.2 62 5.2 ESE 19 24 10 13 1010.9 1010.9 0.0
22/07:00pm 30.1 30.6 21.2 59 6.0 E 20 28 11 15 1010.4 1010.4 0.0
22/06:30pm 31.6 31.5 21.4 54 6.9 ESE 24 28 13 15 1009.7 1009.7 0.0
22/06:00pm 33.3 34.7 21.8 51 7.8 E 17 22 9 12 1009.4 1009.4 0.0
22/05:30pm 33.7 34.5 21.8 49 8.1 E 20 24 11 13 1009.2 1009.2 0.0
22/05:00pm 33.5 35.9 22.3 52 7.7 E 13 15 7 8 1009.2 1009.2 0.0
22/04:30pm 35.2 36.8 22.9 49 8.5 E 19 26 10 14 1009.4 1009.4 0.0
22/04:00pm 31.7 33.9 21.8 55 6.7 SE 13 20 7 11 1009.6 1009.6 0.0
22/03:30pm 31.2 32.5 21.7 57 6.4 SE 17 24 9 13 1009.9 1009.9 0.0
22/03:00pm 31.3 31.2 21.5 56 6.6 ESE 24 30 13 16 1010.2 1010.2 0.0
22/02:30pm 32.8 33.1 21.6 51 7.6 ESE 22 30 12 16 1010.5 1010.5 0.0
22/02:00pm 35.1 37.2 21.0 43 9.5 ENE 11 24 6 13 1010.4 1010.4 0.0
22/01:30pm 36.5 37.9 18.6 35 11.8 ENE 9 17 5 9 1010.5 1010.5 0.0
22/01:00pm 36.1 37.3 19.1 36 11.2 NNW 11 20 6 11 1011.1 1011.1 0.0
22/12:30pm 35.8 37.5 20.1 40 10.5 N 11 19 6 10 1011.5 1011.5 0.0
22/12:00pm 35.6 38.1 21.1 43 9.8 N 9 17 5 9 1011.9 1011.9 0.0
22/11:30am 33.9 34.7 19.9 43 9.3 N 15 30 8 16 1012.3 1012.3 0.0
22/11:00am 33.7 34.6 20.1 44 9.1 N 15 24 8 13 1012.6 1012.6 0.0
22/10:30am 32.9 33.2 20.4 47 8.3 N 19 24 10 13 1012.8 1012.8 0.0
22/10:00am 31.7 31.8 20.3 50 7.6 N 20 28 11 15 1012.9 1012.9 0.0
22/09:30am 30.9 29.5 20.5 54 6.9 N 28 35 15 19 1012.9 1012.9 0.0
22/09:00am 30.1 29.1 20.4 56 6.4 N 26 35 14 19 1012.9 1012.9 0.0
22/08:30am 29.5 28.6 20.6 58 5.9 N 26 33 14 18 1013.0 1013.0 0.0
22/08:00am 28.6 27.7 20.6 62 5.3 N 26 35 14 19 1012.7 1012.7 0.0
22/07:30am 27.8 26.5 20.6 65 4.7 N 28 37 15 20 1012.3 1012.3 0.0
22/07:00am 27.1 27.0 20.7 68 4.2 N 22 28 12 15 1011.9 1011.9 0.0
22/06:30am 26.1 26.2 20.4 71 3.7 N 20 30 11 16 1011.7 1011.7 0.0
22/06:00am 25.8 25.6 20.6 73 3.4 N 22 28 12 15 1011.5 1011.5 0.0
22/05:30am 25.7 26.9 20.7 74 3.3 N 15 20 8 11 1011.0 1011.0 0.0
22/05:00am 25.9 26.3 20.9 74 3.3 N 20 30 11 16 1010.5 1010.5 0.0
22/04:30am 25.7 26.1 20.7 74 3.3 N 19 30 10 16 1010.3 1010.3 0.0
22/04:00am 25.9 25.4 20.7 73 3.4 NNW 24 33 13 18 1009.8 1009.8 0.0
22/03:30am 26.0 25.4 20.6 72 3.5 N 24 35 13 19 1009.5 1009.5 0.0
22/03:00am 26.2 26.4 20.5 71 3.7 NNW 20 28 11 15 1009.4 1009.4 0.0
22/02:30am 25.9 26.1 20.2 71 3.7 N 19 26 10 14 1009.4 1009.4 0.0
22/02:00am 26.2 26.5 20.3 70 3.9 NNW 19 24 10 13 1009.7 1009.7 0.0
22/01:30am 26.5 26.7 20.1 68 4.2 NNW 19 26 10 14 1009.5 1009.5 0.0
22/01:00am 26.7 26.4 20.3 68 4.2 N 22 30 12 16 1009.9 1009.9 0.0
22/12:30am 26.4 26.7 20.3 69 4.0 NNW 19 28 10 15 1010.2 1010.2 0.0
22/12:00am 26.5 26.8 20.3 68 4.1 N 19 32 10 17 1010.3 1010.3 0.0
 
Date/Time
EDT
Temp
°C
App
Temp
°C
Dew
Point
Rel
Hum
%
Delta-T
°C
Wind Press
QNH
hPa
Press
MSL
hPa
Rain
since 9 am
mm
Dir
 
Spd
km/h
Gust
km/h
Spd
kts
Gust
kts
21/11:30pm 26.7 25.9 20.1 67 4.3 N 24 35 13 19 1010.6 1010.6 0.0
21/11:00pm 27.5 25.3 20.3 65 4.7 NNW 32 44 17 24 1010.8 1010.8 0.0
21/10:30pm 27.8 26.2 20.1 63 5.0 NNW 28 37 15 20 1010.5 1010.5 0.0
21/10:00pm 28.0 26.4 20.0 61 5.2 NNW 28 39 15 21 1010.0 1010.0 0.0
21/09:30pm 28.5 27.8 20.2 60 5.5 NNW 24 35 13 19 1009.7 1009.7 0.0
21/09:00pm 28.0 30.2 20.3 63 5.1 N 9 13 5 7 1009.5 1009.5 0.0
21/08:30pm 28.4 30.2 20.4 62 5.3 NNE 11 15 6 8 1009.4 1009.4 0.0
21/08:00pm 29.5 30.6 20.4 58 6.0 N 15 22 8 12 1008.8 1008.8 0.0
21/07:30pm 30.6 31.4 19.9 52 7.0 N 15 17 8 9 1008.6 1008.6 0.0
21/07:00pm 32.5 32.1 19.0 44 8.8 N 19 24 10 13 1008.1 1008.1 0.0
21/06:30pm 34.5 33.2 17.3 36 11.0 N 20 30 11 16 1007.6 1007.6 0.0
21/06:00pm 34.6 32.8 16.9 35 11.3 N 22 30 12 16 1007.1 1007.0 0.0
21/05:30pm 35.5 34.0 17.7 35 11.5 N 22 30 12 16 1007.2 1007.1 0.0
21/05:00pm 35.4 33.5 17.6 35 11.5 N 24 35 13 19 1006.9 1006.8 0.0
21/04:30pm 35.2 32.1 16.5 33 11.9 N 28 39 15 21 1007.0 1006.9 0.0
21/04:00pm 36.2 33.1 17.4 33 12.2 N 30 43 16 23 1007.4 1007.3 0.0
21/03:30pm 35.6 32.4 17.3 33 11.8 N 30 41 16 22 1007.9 1007.9 0.0
21/03:01pm 35.9 33.2 17.6 34 11.9 N 28 46 15 25 1008.4 1008.4 0.0
21/03:00pm 36.1 33.7 18.2 34 11.7 N 28 41 15 22 1008.5 1008.5 0.0
21/02:30pm 35.4 33.1 18.5 37 11.1 N 28 39 15 21 1009.0 1009.0 0.0
21/02:00pm 34.6 32.2 18.2 37 10.7 N 28 43 15 23 1009.6 1009.6 0.0
21/01:30pm 34.4 32.1 18.4 38 10.4 N 28 41 15 22 1010.1 1010.1 0.0
21/01:00pm 34.4 32.4 19.2 40 10.0 N 28 41 15 22 1010.7 1010.7 0.0
21/12:30pm 34.0 31.5 18.9 41 9.9 N 30 43 16 23 1011.3 1011.3 0.0
21/12:00pm 32.5 29.9 17.9 41 9.4 NNW 28 37 15 20 1012.0 1012.0 0.0
21/11:30am 31.6 29.4 18.6 46 8.4 N 28 43 15 23 1012.6 1012.6 0.0
21/11:00am 31.5 29.3 18.8 46 8.3 N 28 43 15 23 1012.9 1012.9 0.0
21/10:30am 30.2 26.6 18.6 49 7.5 N 35 44 19 24 1013.3 1013.3 0.0
21/10:00am 31.0 28.6 20.0 52 7.3 N 32 43 17 23 1013.5 1013.5 0.0
21/09:42am 29.9 27.1 19.0 52 7.1 N 32 50 17 27 1013.7 1013.6 0.0
21/09:30am 30.0 28.0 19.1 52 7.1 NNW 28 43 15 23 1013.8 1013.7 0.0
21/09:00am 28.8 26.0 18.3 53 6.7 NNW 30 41 16 22 1013.9 1013.8 0.0
21/08:30am 27.8 25.0 18.2 56 6.1 NNW 30 41 16 22 1014.2 1014.1 0.0
21/08:00am 27.2 24.7 18.8 60 5.4 NNW 30 39 16 21 1013.8 1013.7 0.0
21/07:58am 27.2 24.1 18.5 59 5.6 N 32 39 17 21 1013.8 1013.7 0.0
21/07:30am 25.8 26.7 19.2 67 4.2 N 13 20 7 11 1013.8 1013.7 0.0
21/07:00am 24.1 26.2 19.4 75 3.0 NNW 7 9 4 5 1013.9 1013.8 0.0
21/06:30am 21.4 23.8 18.8 85 1.6 W 4 6 2 3 1013.8 1013.7 0.0
21/06:00am 21.0 23.3 17.6 81 2.1 WNW 2 6 1 3 1013.3 1013.3 0.0
21/05:30am 22.7 23.8 18.0 75 2.9 NNW 9 13 5 7 1013.2 1013.2 0.0
21/05:00am 23.1 23.5 18.2 74 3.1 N 13 20 7 11 1012.8 1012.8 0.0
21/04:30am 23.9 23.8 18.8 73 3.2 NNW 17 24 9 13 1012.9 1012.9 0.0
21/04:00am 23.5 23.8 18.8 75 3.0 NNW 15 20 8 11 1012.7 1012.7 0.0
21/03:30am 22.1 23.6 18.9 82 2.0 N 9 19 5 10 1012.5 1012.5 0.0
21/03:00am 20.7 22.2 18.1 85 1.6 NNE 7 13 4 7 1012.5 1012.5 0.0
21/02:30am 20.6 23.4 18.0 85 1.6 CALM 0 0 0 0 1012.8 1012.8 0.0
21/02:00am 20.8 23.6 18.0 84 1.7 CALM 0 0 0 0 1012.9 1012.9 0.0
21/01:30am 21.1 24.0 18.3 84 1.7 CALM 0 0 0 0 1013.3 1013.3 0.0
21/01:00am 22.1 24.4 18.5 80 2.3 NE 4 6 2 3 1013.7 1013.6 0.0
21/12:30am 22.9 24.6 18.4 76 2.8 NNE 7 13 4 7 1014.0 1013.9 0.0
21/12:00am 23.2 23.5 17.9 72 3.3 N 13 17 7 9 1014.4 1014.3 0.0
 
Date/Time
EDT
Temp
°C
App
Temp
°C
Dew
Point
Rel
Hum
%
Delta-T
°C
Wind Press
QNH
hPa
Press
MSL
hPa
Rain
since 9 am
mm
Dir
 
Spd
km/h
Gust
km/h
Spd
kts
Gust
kts
20/11:30pm 23.7 24.3 18.6 73 3.2 N 13 22 7 12 1014.7 1014.6 0.0
20/11:00pm 23.1 24.5 18.6 76 2.8 N 9 11 5 6 1014.8 1014.7 0.0
20/10:30pm 23.6 26.0 18.7 74 3.1 N 4 9 2 5 1014.7 1014.6 0.0
20/10:00pm 24.0 25.1 18.9 73 3.2 N 11 15 6 8 1014.4 1014.3 0.0
20/09:30pm 24.3 24.9 18.7 71 3.6 N 13 19 7 10 1014.0 1013.9 0.0
20/09:00pm 24.8 25.1 18.7 69 3.9 NNE 15 19 8 10 1013.7 1013.6 0.0
20/08:30pm 25.2 25.8 18.6 67 4.2 N 13 19 7 10 1013.3 1013.3 0.0
20/08:00pm 25.5 25.8 18.7 66 4.3 NNE 15 19 8 10 1012.8 1012.8 0.0
20/07:30pm 26.3 25.8 18.7 63 4.9 NNE 19 24 10 13 1012.4 1012.4 0.0
20/07:00pm 27.4 26.2 18.4 58 5.7 NNE 22 30 12 16 1012.1 1012.1 0.0
20/06:30pm 28.7 27.3 18.8 55 6.4 NNE 24 32 13 17 1011.5 1011.5 0.0
20/06:00pm 29.6 27.8 18.7 52 7.0 NE 26 35 14 19 1011.4 1011.4 0.0

Other Formats:

Comma delimited format used in spreadsheet applications
http://www.bom.gov.au/fwo/IDN60801/IDN60801.94573.axf

JavaScript Object Notation format (JSON) in row-major order
http://www.bom.gov.au/fwo/IDN60801/IDN60801.94573.json